Time;durP1;ratioP1;P1;durP2;ratioP2;P2;SDS_P1;SDS_P2;PMS_P1;PMS_P2;Temp;Humidity;BMP_temperature;BMP_pressure;BME280_temperature;BME280_humidity;BME280_pressure;Samples;Min_cycle;Max_cycle;Signal;HPM_P1;HPM_P2
2023/12/05 00:00:41;;;;;;;13.10;6.40;;;;;;;-0.61;68.52;100338.09;79877;1292;3012943;-60
2023/12/05 00:03:08;;;;;;;14.70;7.50;;;;;;;-0.53;68.40;100342.23;79650;1298;3011620;-62
2023/12/05 00:05:36;;;;;;;14.40;7.30;;;;;;;-0.38;68.00;100340.83;78573;1297;3028680;-61
2023/12/05 00:08:04;;;;;;;12.20;6.40;;;;;;;-0.38;68.21;100341.00;79761;1293;3015044;-61
2023/12/05 00:10:31;;;;;;;14.00;6.50;;;;;;;-0.38;68.09;100337.55;79888;1292;3012960;-60
2023/12/05 00:13:00;;;;;;;15.90;7.40;;;;;;;-0.31;67.77;100334.77;78748;1293;3049835;-61
2023/12/05 00:15:27;;;;;;;12.30;6.40;;;;;;;-0.28;67.70;100337.36;80115;1292;3014708;-62
2023/12/05 00:17:54;;;;;;;14.10;7.20;;;;;;;-0.31;67.74;100342.36;80039;1293;3013021;-62
2023/12/05 00:20:22;;;;;;;19.90;8.40;;;;;;;-0.47;68.65;100347.20;78553;1297;3051572;-61
2023/12/05 00:22:49;;;;;;;25.40;8.80;;;;;;;-0.44;68.52;100352.88;79932;1295;3019402;-63
2023/12/05 00:25:15;;;;;;;20.50;7.60;;;;;;;-0.36;68.14;100349.95;79838;1293;3012520;-59
2023/12/05 00:27:43;;;;;;;32.00;11.50;;;;;;;-0.21;66.85;100351.45;78569;1293;3025561;-60
2023/12/05 00:30:11;;;;;;;35.80;11.50;;;;;;;-0.29;67.45;100351.99;79846;1292;3013756;-62
2023/12/05 00:32:38;;;;;;;39.90;12.10;;;;;;;-0.28;67.64;100354.06;80014;1292;3011674;-60
2023/12/05 00:35:06;;;;;;;30.30;10.50;;;;;;;-0.31;67.51;100352.35;78695;1295;3051369;-59
2023/12/05 00:37:33;;;;;;;31.90;11.20;;;;;;;-0.25;67.43;100351.98;79772;1292;3013889;-61
2023/12/05 00:40:00;;;;;;;27.80;10.30;;;;;;;-0.36;68.00;100352.70;79958;1292;3012077;-64
2023/12/05 00:42:28;;;;;;;24.10;8.90;;;;;;;-0.35;67.83;100356.32;78788;1297;3049753;-61
2023/12/05 00:44:55;;;;;;;33.30;11.30;;;;;;;-0.20;67.11;100355.42;79873;1293;3018288;-61
2023/12/05 00:47:22;;;;;;;20.60;9.40;;;;;;;-0.28;67.67;100355.80;79760;1292;3013272;-62
2023/12/05 00:49:50;;;;;;;19.30;9.20;;;;;;;-0.37;67.63;100359.41;78593;1295;3026850;-62
2023/12/05 00:52:16;;;;;;;16.00;6.60;;;;;;;-0.28;67.31;100356.13;79841;1298;3013022;-60
2023/12/05 00:54:44;;;;;;;20.10;8.30;;;;;;;-0.33;67.44;100353.38;80080;1292;3011594;-62
2023/12/05 00:57:12;;;;;;;17.30;7.50;;;;;;;-0.41;67.97;100358.55;78523;1292;3048545;-59
2023/12/05 00:59:39;;;;;;;17.40;7.50;;;;;;;-0.35;67.79;100355.28;79826;1293;3013833;-62
2023/12/05 01:02:07;;;;;;;15.60;6.40;;;;;;;-0.40;67.97;100359.59;79905;1297;3011878;-62
2023/12/05 01:04:35;;;;;;;15.10;6.80;;;;;;;-0.45;68.10;100353.92;78559;1297;3051260;-59
2023/12/05 01:07:02;;;;;;;15.50;6.60;;;;;;;-0.42;68.33;100355.28;79695;1294;3013643;-62
2023/12/05 01:09:30;;;;;;;11.70;5.80;;;;;;;-0.48;68.52;100350.47;79703;1292;3013257;-61
2023/12/05 01:11:58;;;;;;;13.30;6.70;;;;;;;-0.29;67.99;100347.00;78477;1298;3049181;-61
2023/12/05 01:14:26;;;;;;;12.60;6.90;;;;;;;-0.30;68.24;100351.65;80114;1294;3013093;-61
2023/12/05 01:16:53;;;;;;;15.50;7.50;;;;;;;-0.28;68.04;100342.70;79862;1295;3011926;-61
2023/12/05 01:19:21;;;;;;;16.40;7.60;;;;;;;-0.31;68.03;100345.29;78615;1295;3051963;-62
2023/12/05 01:21:48;;;;;;;16.50;7.50;;;;;;;-0.29;68.26;100347.00;79873;1297;3013115;-58
2023/12/05 01:24:15;;;;;;;13.40;7.10;;;;;;;-0.24;68.11;100346.65;79879;1292;3011266;-59
2023/12/05 01:26:43;;;;;;;13.00;6.70;;;;;;;-0.17;67.75;100352.99;78554;1298;3026171;-60
2023/12/05 01:29:10;;;;;;;11.60;6.50;;;;;;;-0.20;68.12;100358.52;80369;1293;3012889;-63
2023/12/05 01:31:37;;;;;;;14.20;6.90;;;;;;;-0.26;68.50;100358.19;79787;1293;3011626;-61
2023/12/05 01:34:05;;;;;;;11.90;6.50;;;;;;;-0.30;68.46;100360.08;78520;1296;3051181;-59
2023/12/05 01:36:32;;;;;;;11.40;6.50;;;;;;;-0.26;68.46;100359.90;80060;1295;3013169;-60
2023/12/05 01:38:58;;;;;;;12.00;6.50;;;;;;;-0.14;68.38;100357.13;79777;1297;3011746;-60
2023/12/05 01:41:26;;;;;;;12.10;7.00;;;;;;;-0.24;68.48;100359.39;78628;1295;3027358;-60
2023/12/05 01:43:53;;;;;;;13.80;6.60;;;;;;;-0.23;68.66;100355.60;79646;1297;3013601;-61
2023/12/05 01:46:20;;;;;;;11.00;6.60;;;;;;;-0.17;68.27;100360.75;79961;1296;3011796;-61
2023/12/05 01:48:48;;;;;;;10.50;6.30;;;;;;;-0.21;68.39;100352.32;78718;1297;3026484;-62
2023/12/05 01:51:15;;;;;;;14.70;6.90;;;;;;;-0.24;68.55;100354.91;79769;1292;3013779;-61
2023/12/05 01:53:42;;;;;;;12.50;7.20;;;;;;;-0.28;68.88;100356.65;79830;1293;3011721;-63
2023/12/05 01:56:10;;;;;;;14.80;7.00;;;;;;;-0.31;69.18;100360.77;78375;1298;3024782;-62
2023/12/05 01:58:37;;;;;;;17.00;7.60;;;;;;;-0.27;68.91;100360.42;79925;1293;3012976;-60
2023/12/05 02:01:04;;;;;;;12.70;6.80;;;;;;;-0.30;69.07;100358.70;79709;1298;3012075;-62
2023/12/05 02:03:32;;;;;;;14.00;7.00;;;;;;;-0.33;69.04;100354.24;78729;1298;3052965;-62
2023/12/05 02:06:00;;;;;;;17.30;8.30;;;;;;;-0.41;69.50;100355.80;79666;1298;3012993;-61
2023/12/05 02:08:30;;;;;;;20.00;8.20;;;;;;;-0.44;69.47;100354.59;80131;1298;3011605;-60
2023/12/05 02:10:58;;;;;;;15.60;7.40;;;;;;;-0.53;69.98;100352.90;78606;1297;3049251;-61
2023/12/05 02:13:24;;;;;;;17.90;9.60;;;;;;;-0.51;69.64;100355.98;79783;1292;3018670;-61
2023/12/05 02:16:04;;;;;;;19.40;8.40;;;;;;;-0.60;70.18;100354.27;79674;1298;3013397;-62
2023/12/05 02:18:35;;;;;;;17.00;8.10;;;;;;;-0.68;70.63;100351.70;78661;1298;3051717;-61
2023/12/05 02:21:11;;;;;;;19.00;8.90;;;;;;;-0.72;70.64;100361.84;79785;1298;3013039;-60
2023/12/05 02:24:01;;;;;;;18.00;9.30;;;;;;;-0.77;70.85;100371.48;78576;1298;3052396;-62
2023/12/05 02:26:53;;;;;;;24.80;11.40;;;;;;;-0.88;71.57;100374.05;78853;1293;3057159;-60
2023/12/05 02:29:21;;;;;;;19.10;10.00;;;;;;;-0.92;72.10;100374.58;78640;1298;3049313;-62
2023/12/05 02:31:48;;;;;;;26.40;12.30;;;;;;;-0.85;71.71;100376.11;79872;1298;3012452;-62
2023/12/05 02:34:14;;;;;;;20.50;10.30;;;;;;;-0.90;71.95;100387.31;80093;1295;3011605;-62
2023/12/05 02:36:57;;;;;;;22.60;11.00;;;;;;;-0.87;71.81;100390.06;78825;1295;3027440;-63
2023/12/05 02:39:47;;;;;;;23.60;11.20;;;;;;;-0.91;72.09;100393.67;78543;1293;3068424;-61
2023/12/05 02:42:15;;;;;;;22.60;11.00;;;;;;;-0.92;71.85;100385.23;78428;1298;3051417;-61
2023/12/05 02:44:48;;;;;;;22.10;10.10;;;;;;;-0.95;72.49;100391.95;79815;1295;3012861;-62
2023/12/05 02:47:16;;;;;;;25.00;10.40;;;;;;;-0.90;72.02;100390.40;78640;1293;3052572;-62
2023/12/05 02:49:43;;;;;;;23.00;11.10;;;;;;;-0.96;72.31;100389.36;80009;1295;3012858;-63
2023/12/05 02:52:10;;;;;;;19.20;9.00;;;;;;;-0.98;72.74;100394.36;79901;1298;3013003;-61
2023/12/05 02:54:38;;;;;;;17.70;9.70;;;;;;;-0.92;72.25;100397.63;78537;1298;3025496;-62
2023/12/05 02:57:05;;;;;;;21.20;9.00;;;;;;;-0.99;72.40;100395.55;79964;1292;3013214;-60
2023/12/05 02:59:32;;;;;;;20.70;10.00;;;;;;;-1.01;72.43;100399.34;79920;1295;3011630;-62
2023/12/05 03:02:00;;;;;;;29.00;11.60;;;;;;;-1.07;73.07;100403.96;78701;1297;3026499;-61
2023/12/05 03:04:27;;;;;;;26.40;11.90;;;;;;;-1.04;72.87;100408.96;80078;1298;3013756;-61
2023/12/05 03:06:54;;;;;;;23.00;11.40;;;;;;;-0.96;72.31;100416.19;79946;1297;3011347;-62
2023/12/05 03:09:22;;;;;;;26.60;11.50;;;;;;;-1.07;72.51;100419.79;78456;1295;3028906;-61
2023/12/05 03:11:48;;;;;;;25.40;11.50;;;;;;;-1.26;73.52;100422.83;79932;1292;3018664;-66
2023/12/05 03:14:16;;;;;;;26.20;11.40;;;;;;;-1.29;74.26;100427.81;79973;1297;3011786;-61
2023/12/05 03:16:44;;;;;;;23.70;11.20;;;;;;;-1.34;74.47;100435.52;78583;1293;3026314;-61
2023/12/05 03:19:10;;;;;;;21.50;10.70;;;;;;;-1.37;74.25;100433.79;79858;1298;3013419;-62
2023/12/05 03:21:37;;;;;;;20.90;10.20;;;;;;;-1.42;74.19;100433.10;80085;1294;3012005;-64
2023/12/05 03:24:06;;;;;;;22.70;10.40;;;;;;;-1.36;73.98;100437.08;78612;1292;3028163;-63
2023/12/05 03:26:33;;;;;;;18.70;9.90;;;;;;;-1.48;74.31;100441.83;80088;1293;3013245;-63
2023/12/05 03:29:00;;;;;;;20.20;9.30;;;;;;;-1.43;74.19;100443.57;79984;1293;3011779;-62
2023/12/05 03:31:38;;;;;;;22.80;10.30;;;;;;;-1.44;73.90;100443.90;78604;1295;3052646;-62
2023/12/05 03:34:06;;;;;;;18.80;9.30;;;;;;;-1.54;74.57;100439.74;78578;1293;3049514;-60
2023/12/05 03:36:33;;;;;;;16.70;9.00;;;;;;;-1.58;75.39;100440.06;79961;1298;3012680;-61
2023/12/05 03:39:00;;;;;;;21.60;10.80;;;;;;;-1.57;74.76;100443.85;79685;1298;3011473;-60
2023/12/05 03:41:28;;;;;;;17.10;9.70;;;;;;;-1.65;75.51;100441.58;78682;1298;3028162;-62
2023/12/05 03:43:55;;;;;;;19.60;9.70;;;;;;;-1.63;74.82;100442.63;79949;1292;3013821;-62
2023/12/05 03:46:22;;;;;;;18.00;9.40;;;;;;;-1.63;74.48;100442.96;80153;1292;3011529;-62
2023/12/05 03:48:50;;;;;;;19.70;10.00;;;;;;;-1.53;74.39;100443.70;78828;1298;3026325;-63
2023/12/05 03:51:17;;;;;;;22.60;10.10;;;;;;;-1.49;74.02;100451.10;80048;1295;3015202;-63
2023/12/05 03:53:43;;;;;;;26.60;10.90;;;;;;;-1.62;74.65;100450.35;79790;1296;3011642;-58
2023/12/05 03:56:11;;;;;;;24.90;11.30;;;;;;;-1.65;74.83;100451.04;78713;1296;3026592;-59
2023/12/05 03:58:40;;;;;;;25.20;13.10;;;;;;;-1.70;74.96;100453.24;79936;1295;3013397;-60
2023/12/05 04:01:08;;;;;;;22.30;11.00;;;;;;;-1.66;74.70;100448.63;79878;1298;3012933;-60
2023/12/05 04:03:36;;;;;;;26.40;11.00;;;;;;;-1.69;74.95;100448.08;78399;1298;3050822;-60
2023/12/05 04:06:03;;;;;;;22.50;10.70;;;;;;;-1.73;75.42;100438.95;79823;1297;3019873;-61
2023/12/05 04:08:30;;;;;;;23.00;12.10;;;;;;;-1.81;76.45;100438.40;80079;1298;3011562;-62
2023/12/05 04:10:58;;;;;;;26.00;12.10;;;;;;;-1.85;76.29;100439.76;78720;1297;3052288;-60
2023/12/05 04:13:25;;;;;;;26.80;11.30;;;;;;;-1.92;76.80;100438.00;79921;1293;3013086;-62
2023/12/05 04:15:52;;;;;;;29.50;13.00;;;;;;;-1.79;76.18;100435.84;80301;1292;3011739;-63
2023/12/05 04:18:20;;;;;;;24.60;11.20;;;;;;;-1.80;76.07;100432.56;78863;1295;3026477;-62
2023/12/05 04:20:47;;;;;;;32.00;13.10;;;;;;;-1.79;75.81;100429.83;80008;1298;3013091;-61
2023/12/05 04:23:14;;;;;;;22.30;10.40;;;;;;;-1.92;76.63;100430.95;80058;1298;3011819;-61
2023/12/05 04:25:42;;;;;;;24.80;10.90;;;;;;;-1.74;75.89;100429.69;78624;1293;3025488;-60
2023/12/05 04:28:09;;;;;;;23.70;8.90;;;;;;;-1.85;76.57;100437.88;79956;1293;3013075;-62
2023/12/05 04:30:36;;;;;;;23.60;10.40;;;;;;;-1.43;76.64;100436.34;79750;1298;3012778;-65
2023/12/05 04:33:04;;;;;;;21.70;9.10;;;;;;;-0.58;74.86;100438.94;78621;1298;3028704;-60
2023/12/05 04:35:30;;;;;;;20.70;9.40;;;;;;;-0.24;73.41;100435.33;79911;1295;3013521;-61
2023/12/05 04:37:57;;;;;;;22.40;10.40;;;;;;;-0.71;72.78;100439.27;79937;1298;3011705;-60
2023/12/05 04:40:25;;;;;;;21.40;12.10;;;;;;;-0.80;73.70;100441.51;78498;1297;3027478;-61
2023/12/05 04:42:52;;;;;;;34.00;13.80;;;;;;;-0.93;73.89;100444.92;79894;1295;3018897;-61
2023/12/05 04:45:19;;;;;;;27.60;15.20;;;;;;;-1.12;74.10;100446.25;79998;1295;3011883;-63
2023/12/05 04:47:47;;;;;;;23.50;11.80;;;;;;;-1.36;74.70;100446.86;78598;1298;3028399;-63
2023/12/05 04:50:14;;;;;;;19.60;10.80;;;;;;;-1.42;74.74;100448.38;79646;1295;3015253;-61
2023/12/05 04:52:40;;;;;;;51.20;17.30;;;;;;;-1.56;75.75;100448.50;80200;1295;3011621;-61
2023/12/05 04:55:08;;;;;;;36.60;14.20;;;;;;;-1.64;75.60;100452.91;78776;1297;3026348;-62
2023/12/05 04:57:35;;;;;;;24.20;11.90;;;;;;;-1.67;75.62;100461.16;80003;1297;3013027;-62
2023/12/05 05:00:04;;;;;;;24.80;10.90;;;;;;;-1.70;75.69;100460.45;80020;1292;3011878;-62
2023/12/05 05:02:33;;;;;;;22.90;11.10;;;;;;;-1.75;75.61;100459.91;78945;1298;3048463;-63
2023/12/05 05:04:59;;;;;;;22.20;11.00;;;;;;;-1.89;76.07;100456.91;80234;1298;3019916;-62
2023/12/05 05:07:26;;;;;;;23.50;11.60;;;;;;;-1.84;76.29;100457.62;80525;1293;3011963;-62
2023/12/05 05:09:55;;;;;;;19.10;10.30;;;;;;;-1.85;76.43;100452.81;79238;1297;3027853;-59
2023/12/05 05:12:21;;;;;;;19.30;10.30;;;;;;;-1.90;76.71;100459.65;80513;1293;3018492;-61
2023/12/05 05:14:48;;;;;;;14.90;8.60;;;;;;;-1.89;76.32;100469.11;79991;1299;3011591;-63
2023/12/05 05:17:16;;;;;;;17.90;9.20;;;;;;;-1.96;76.89;100468.88;78746;1298;3026303;-63
2023/12/05 05:19:43;;;;;;;19.20;9.90;;;;;;;-1.92;76.77;100464.62;80125;1298;3012724;-60
2023/12/05 05:22:10;;;;;;;18.40;10.60;;;;;;;-1.94;76.38;100462.20;79996;1297;3011584;-61
2023/12/05 05:24:38;;;;;;;19.90;9.10;;;;;;;-1.98;76.05;100462.70;78872;1293;3025776;-60
2023/12/05 05:27:05;;;;;;;16.90;9.00;;;;;;;-1.87;75.57;100464.98;79988;1292;3012946;-61
2023/12/05 05:29:32;;;;;;;38.70;17.40;;;;;;;-1.92;75.53;100471.83;80150;1292;3012051;-61
2023/12/05 05:32:00;;;;;;;41.40;19.90;;;;;;;-1.98;75.83;100482.45;78753;1307;3026042;-61
2023/12/05 05:34:27;;;;;;;39.30;18.70;;;;;;;-2.08;76.49;100485.45;79974;1298;3019067;-60
2023/12/05 05:36:53;;;;;;;43.40;20.40;;;;;;;-2.09;76.86;100492.48;79926;1297;3011914;-62
2023/12/05 05:39:21;;;;;;;32.80;16.70;;;;;;;-1.98;76.35;100487.08;78672;1293;3026715;-62
2023/12/05 05:41:48;;;;;;;36.80;16.00;;;;;;;-1.95;76.76;100490.70;79960;1297;3013624;-60
2023/12/05 05:44:15;;;;;;;45.30;20.90;;;;;;;-2.01;76.51;100489.98;79924;1298;3011950;-61
2023/12/05 05:46:43;;;;;;;44.10;20.50;;;;;;;-2.00;76.31;100480.37;78998;1298;3026791;-61
2023/12/05 05:49:10;;;;;;;43.30;20.10;;;;;;;-1.98;76.25;100477.29;80005;1298;3018504;-63
2023/12/05 05:51:36;;;;;;;60.70;28.00;;;;;;;-1.91;76.08;100483.17;79728;1297;3011980;-61
2023/12/05 05:54:05;;;;;;;59.10;27.00;;;;;;;-2.02;76.82;100488.77;78637;1296;3029443;-60
2023/12/05 05:56:41;;;;;;;103.30;34.30;;;;;;;-1.98;77.06;100489.66;79818;1293;3015886;-60
2023/12/05 05:59:09;;;;;;;128.70;45.60;;;;;;;-1.89;76.43;100490.40;78568;1298;3053687;-62
2023/12/05 06:01:36;;;;;;;74.10;27.10;;;;;;;-1.92;76.83;100491.58;79972;1295;3013619;-61
2023/12/05 06:04:03;;;;;;;38.80;16.20;;;;;;;-1.92;76.51;100494.52;80108;1297;3013417;-61
2023/12/05 06:06:32;;;;;;;26.20;11.60;;;;;;;-1.89;76.88;100490.39;78659;1298;3068115;-61
2023/12/05 06:08:59;;;;;;;26.50;12.50;;;;;;;-1.91;76.50;100487.98;79994;1293;3021289;-62
2023/12/05 06:11:26;;;;;;;28.00;12.20;;;;;;;-1.96;76.95;100494.12;80005;1295;3013047;-61
2023/12/05 06:13:54;;;;;;;24.00;11.80;;;;;;;-1.95;76.77;100492.77;78623;1292;3026687;-62
2023/12/05 06:16:21;;;;;;;24.40;10.80;;;;;;;-1.78;76.75;100494.59;80103;1295;3015022;-60
2023/12/05 06:18:48;;;;;;;20.60;10.70;;;;;;;-1.77;76.14;100501.64;79791;1297;3012818;-63
2023/12/05 06:21:16;;;;;;;22.80;12.00;;;;;;;-1.73;75.53;100507.86;78499;1295;3068717;-61
2023/12/05 06:23:43;;;;;;;21.60;11.90;;;;;;;-1.66;75.48;100509.28;79731;1295;3016071;-61
2023/12/05 06:26:10;;;;;;;30.20;13.60;;;;;;;-1.74;75.33;100504.25;80041;1292;3013284;-61
2023/12/05 06:28:38;;;;;;;30.90;15.30;;;;;;;-1.80;75.15;100500.06;78725;1295;3053000;-63
2023/12/05 06:31:06;;;;;;;29.60;13.10;;;;;;;-1.89;75.30;100490.22;79871;1295;3013417;-63
2023/12/05 06:33:32;;;;;;;30.60;14.60;;;;;;;-1.83;74.60;100493.87;79760;1295;3012228;-64
2023/12/05 06:36:01;;;;;;;32.90;14.80;;;;;;;-1.74;74.66;100494.27;78587;1295;3070532;-60
2023/12/05 06:38:28;;;;;;;34.10;15.80;;;;;;;-1.87;73.94;100499.70;79627;1296;3012953;-61
2023/12/05 06:40:54;;;;;;;26.20;13.00;;;;;;;-1.92;74.13;100499.31;79927;1299;3011618;-61
2023/12/05 06:43:22;;;;;;;26.70;13.40;;;;;;;-1.76;73.45;100500.45;78749;1297;3026426;-62
2023/12/05 06:45:49;;;;;;;27.20;13.50;;;;;;;-1.81;72.75;100498.02;79843;1298;3012844;-62
2023/12/05 06:48:16;;;;;;;24.80;12.40;;;;;;;-1.72;72.99;100495.66;79939;1295;3013993;-60
2023/12/05 06:50:48;;;;;;;23.10;12.50;;;;;;;-1.59;72.59;100497.79;78619;1298;3025691;-59
2023/12/05 06:53:14;;;;;;;24.10;12.00;;;;;;;-1.56;72.05;100491.29;79902;1295;3011670;-61
2023/12/05 06:55:43;;;;;;;21.50;11.10;;;;;;;-1.56;71.89;100495.92;79502;1298;3011920;-62
2023/12/05 06:58:11;;;;;;;26.30;13.30;;;;;;;-1.56;71.44;100498.68;80022;1298;3012934;-60
2023/12/05 07:00:38;;;;;;;30.10;13.00;;;;;;;-1.56;71.12;100490.94;79736;1293;3013501;-63
2023/12/05 07:03:06;;;;;;;31.60;13.80;;;;;;;-1.32;71.07;100489.68;78693;1296;3051090;-61
2023/12/05 07:05:33;;;;;;;40.50;16.70;;;;;;;-1.11;70.66;100490.45;80283;1295;3013040;-63
2023/12/05 07:08:00;;;;;;;37.90;17.10;;;;;;;-1.25;70.17;100489.54;80067;1293;3011793;-61
2023/12/05 07:10:29;;;;;;;24.00;11.30;;;;;;;-1.23;70.65;100491.09;79034;1298;3056099;-61
2023/12/05 07:12:56;;;;;;;33.20;13.80;;;;;;;-1.09;69.31;100496.83;80216;1298;3013531;-60
2023/12/05 07:15:23;;;;;;;28.40;13.00;;;;;;;-1.13;69.18;100500.42;79910;1293;3011459;-61
2023/12/05 07:17:51;;;;;;;28.80;13.70;;;;;;;-1.10;68.80;100505.93;78854;1297;3053123;-61
2023/12/05 07:20:17;;;;;;;28.60;13.50;;;;;;;-1.05;69.01;100493.91;80074;1295;3018613;-61
2023/12/05 07:22:44;;;;;;;37.50;15.10;;;;;;;-0.90;68.48;100485.86;79600;1297;3011922;-61
2023/12/05 07:25:12;;;;;;;32.60;14.50;;;;;;;-0.87;67.89;100487.27;78683;1293;3025837;-63
2023/12/05 07:27:39;;;;;;;37.70;14.60;;;;;;;-0.85;67.59;100488.13;80005;1295;3013457;-64
2023/12/05 07:30:10;;;;;;;33.40;13.60;;;;;;;-0.80;67.26;100494.33;80001;1298;3011972;-61
2023/12/05 07:32:38;;;;;;;34.20;14.60;;;;;;;-0.75;66.35;100492.62;78833;1295;3051752;-65
2023/12/05 07:35:05;;;;;;;38.70;14.00;;;;;;;-0.68;66.34;100491.24;80002;1292;3018324;-61
2023/12/05 07:37:32;;;;;;;49.30;18.60;;;;;;;-0.49;66.06;100497.81;79955;1296;3011652;-64
2023/12/05 07:40:01;;;;;;;43.40;16.40;;;;;;;-0.47;65.62;100501.61;78700;1295;3055079;-61
2023/12/05 07:42:28;;;;;;;117.70;33.10;;;;;;;-0.41;65.65;100504.20;79893;1298;3014675;-64
2023/12/05 07:44:54;;;;;;;48.70;17.70;;;;;;;-0.33;65.14;100507.30;79931;1303;3011514;-62
2023/12/05 07:47:23;;;;;;;36.70;14.70;;;;;;;-0.42;64.03;100505.74;78785;1298;3052035;-63
2023/12/05 07:49:50;;;;;;;29.50;13.30;;;;;;;-0.40;64.08;100505.75;79615;1296;3014919;-61
2023/12/05 07:52:18;;;;;;;22.30;10.50;;;;;;;-0.38;63.91;100505.57;79890;1297;3011585;-63
2023/12/05 07:54:46;;;;;;;21.20;9.30;;;;;;;-0.31;62.67;100514.20;78746;1293;3056124;-61
2023/12/05 07:57:14;;;;;;;20.40;9.30;;;;;;;-0.08;63.32;100521.25;79992;1291;3013573;-61
2023/12/05 07:59:41;;;;;;;16.80;9.10;;;;;;;-0.04;62.84;100519.19;80199;1298;3011856;-61
2023/12/05 08:02:10;;;;;;;18.10;8.60;;;;;;;-0.02;62.48;100513.84;78648;1298;3052931;-62
2023/12/05 08:04:37;;;;;;;28.50;11.00;;;;;;;0.19;62.17;100512.27;80280;1296;3013657;-60
2023/12/05 08:07:04;;;;;;;19.80;10.30;;;;;;;0.30;61.93;100508.30;80120;1295;3011903;-60
2023/12/05 08:09:32;;;;;;;20.90;10.10;;;;;;;0.40;61.26;100503.79;78788;1295;3056218;-61
2023/12/05 08:11:59;;;;;;;17.10;9.00;;;;;;;0.49;60.88;100501.36;79919;1297;3020601;-61
2023/12/05 08:14:26;;;;;;;18.40;8.20;;;;;;;0.62;60.61;100498.73;79979;1298;3011771;-61
2023/12/05 08:16:54;;;;;;;18.30;8.80;;;;;;;0.33;59.55;100494.49;78651;1299;3026193;-62
2023/12/05 08:19:21;;;;;;;19.00;7.70;;;;;;;0.55;60.27;100487.55;80065;1298;3013734;-61
2023/12/05 08:21:48;;;;;;;13.50;7.00;;;;;;;0.37;58.95;100490.00;79855;1292;3011871;-64
2023/12/05 08:24:16;;;;;;;18.90;8.90;;;;;;;0.43;59.97;100482.59;78613;1299;3057239;-60
2023/12/05 08:26:43;;;;;;;20.60;9.70;;;;;;;0.65;60.21;100481.98;79807;1306;3013523;-63
2023/12/05 08:29:10;;;;;;;27.10;11.80;;;;;;;0.72;60.08;100479.73;79886;1296;3011697;-62
2023/12/05 08:31:39;;;;;;;20.70;8.70;;;;;;;0.76;59.29;100480.75;78687;1297;3051834;-62
2023/12/05 08:34:05;;;;;;;24.30;10.90;;;;;;;0.90;58.64;100481.02;79896;1293;3012862;-62
2023/12/05 08:36:32;;;;;;;24.80;10.40;;;;;;;0.82;57.76;100482.61;79935;1292;3012997;-64
2023/12/05 08:39:00;;;;;;;32.70;11.90;;;;;;;0.74;58.01;100480.93;78934;1296;3028709;-62
2023/12/05 08:41:27;;;;;;;23.90;8.50;;;;;;;0.66;57.79;100477.85;79696;1293;3020451;-63
2023/12/05 08:43:54;;;;;;;43.40;14.60;;;;;;;0.53;57.06;100468.77;80023;1298;3011329;-63
2023/12/05 08:46:22;;;;;;;33.30;11.80;;;;;;;0.73;58.23;100467.13;78807;1295;3026122;-63
2023/12/05 08:48:49;;;;;;;20.40;9.40;;;;;;;0.83;57.54;100467.09;80070;1298;3013839;-60
2023/12/05 08:51:18;;;;;;;17.60;8.30;;;;;;;0.98;57.17;100466.83;80072;1292;3011793;-62
2023/12/05 08:53:47;;;;;;;14.50;6.10;;;;;;;1.09;56.96;100470.58;78912;1295;3055597;-63
2023/12/05 08:56:13;;;;;;;12.90;6.90;;;;;;;1.13;54.85;100464.68;80015;1296;3013675;-63
2023/12/05 08:58:40;;;;;;;14.60;7.80;;;;;;;1.26;54.97;100459.27;80040;1293;3011427;-62
2023/12/05 09:01:11;;;;;;;12.90;6.80;;;;;;;1.43;54.83;100455.52;79156;1292;3054830;-64
2023/12/05 09:03:39;;;;;;;11.00;6.00;;;;;;;1.53;54.20;100457.67;80187;1297;3011553;-61
2023/12/05 09:06:08;;;;;;;12.70;6.00;;;;;;;1.70;54.56;100452.19;78712;1292;3026769;-62
2023/12/05 09:08:35;;;;;;;7.90;5.00;;;;;;;1.71;54.79;100448.73;79909;1293;3013506;-63
2023/12/05 09:11:03;;;;;;;12.70;6.70;;;;;;;1.88;54.69;100442.19;80019;1293;3011552;-63
2023/12/05 09:13:31;;;;;;;15.60;7.70;;;;;;;1.93;54.35;100440.59;78402;1300;3054848;-61
2023/12/05 09:15:57;;;;;;;15.80;8.80;;;;;;;1.96;54.23;100440.56;80181;1298;3019363;-62
2023/12/05 09:18:24;;;;;;;12.80;7.50;;;;;;;1.97;53.99;100433.12;79905;1296;3011634;-64
2023/12/05 09:20:52;;;;;;;10.10;6.00;;;;;;;1.87;53.68;100429.58;78785;1293;3025855;-62
2023/12/05 09:23:19;;;;;;;9.40;5.70;;;;;;;1.98;52.62;100431.05;79969;1295;3013279;-63
2023/12/05 09:25:46;;;;;;;10.30;5.40;;;;;;;1.79;51.74;100433.79;80138;1296;3011493;-61
2023/12/05 09:28:15;;;;;;;11.70;6.20;;;;;;;1.70;52.15;100438.55;78731;1296;3027087;-62
2023/12/05 09:30:41;;;;;;;17.20;6.70;;;;;;;1.99;52.54;100444.33;80125;1297;3013391;-64
2023/12/05 09:33:08;;;;;;;16.90;7.50;;;;;;;2.14;52.96;100448.33;80196;1298;3011947;-64
2023/12/05 09:35:36;;;;;;;11.60;6.50;;;;;;;2.23;52.92;100446.16;78866;1295;3027908;-61
2023/12/05 09:38:04;;;;;;;12.30;5.50;;;;;;;2.00;52.90;100448.64;80250;1293;3013232;-62
2023/12/05 09:40:31;;;;;;;15.60;5.20;;;;;;;1.98;52.69;100452.64;80186;1299;3011808;-62
2023/12/05 09:42:59;;;;;;;9.50;5.20;;;;;;;1.83;52.70;100456.73;75838;1293;3525568;-61
2023/12/05 09:45:28;;;;;;;11.30;5.20;;;;;;;1.96;53.15;100454.90;80184;1292;3013786;-62
2023/12/05 09:47:57;;;;;;;10.90;6.00;;;;;;;2.15;52.81;100447.80;79322;1298;3011944;-62
2023/12/05 09:50:24;;;;;;;12.70;5.60;;;;;;;2.05;52.62;100447.72;79868;1295;3012941;-61
2023/12/05 09:52:51;;;;;;;10.30;5.30;;;;;;;1.83;52.80;100448.80;79906;1293;3011885;-63
2023/12/05 09:55:20;;;;;;;11.50;5.70;;;;;;;1.82;52.92;100443.80;78696;1293;3055939;-60
2023/12/05 09:57:47;;;;;;;14.70;6.30;;;;;;;1.76;53.00;100445.58;80277;1293;3013496;-61
2023/12/05 10:00:14;;;;;;;12.40;6.40;;;;;;;1.99;53.23;100448.64;80168;1293;3011416;-62
2023/12/05 10:02:45;;;;;;;9.90;5.40;;;;;;;1.99;52.92;100448.48;78763;1297;3054519;-63
2023/12/05 10:05:14;;;;;;;10.30;5.50;;;;;;;1.91;53.02;100448.55;80035;1295;3012697;-61
2023/12/05 10:07:43;;;;;;;9.20;4.80;;;;;;;1.79;53.55;100448.67;78943;1297;3024651;-62
2023/12/05 10:10:10;;;;;;;14.40;5.40;;;;;;;1.70;53.43;100455.65;80258;1293;3012866;-62
2023/12/05 10:12:37;;;;;;;9.40;5.10;;;;;;;1.47;54.41;100458.77;79909;1292;3011846;-62
2023/12/05 10:15:05;;;;;;;10.90;5.50;;;;;;;1.44;54.23;100459.83;78629;1298;3052166;-61
2023/12/05 10:17:34;;;;;;;15.20;7.70;;;;;;;1.59;54.47;100462.30;79956;1295;3011625;-62
2023/12/05 10:20:04;;;;;;;13.60;6.40;;;;;;;1.67;54.45;100458.95;79348;1298;3011470;-61
2023/12/05 10:22:31;;;;;;;10.80;6.10;;;;;;;1.57;54.74;100459.04;79905;1297;3013233;-61
2023/12/05 10:24:58;;;;;;;10.40;5.90;;;;;;;1.52;55.28;100464.09;79840;1293;3011572;-62
2023/12/05 10:27:27;;;;;;;11.80;5.40;;;;;;;1.44;55.07;100462.59;78601;1298;3057282;-62
2023/12/05 10:29:53;;;;;;;12.00;5.90;;;;;;;1.51;55.32;100461.14;79812;1293;3013288;-60
2023/12/05 10:32:27;;;;;;;9.70;5.50;;;;;;;1.63;55.52;100464.86;79851;1292;3011686;-63
2023/12/05 10:35:01;;;;;;;12.90;6.50;;;;;;;1.67;55.41;100460.86;78549;1295;3052456;-62
2023/12/05 10:37:28;;;;;;;14.50;7.50;;;;;;;1.31;56.35;100462.68;80116;1293;3013605;-62
2023/12/05 10:40:00;;;;;;;16.20;8.20;;;;;;;1.31;57.42;100453.70;78677;1293;3068772;-62
2023/12/05 10:42:30;;;;;;;33.80;12.90;;;;;;;1.29;57.43;100450.43;79922;1292;3011827;-63
2023/12/05 10:45:00;;;;;;;32.90;10.80;;;;;;;1.31;57.50;100446.10;78703;1297;3054940;-64
2023/12/05 10:47:27;;;;;;;14.70;7.60;;;;;;;1.20;57.73;100448.41;79761;1298;3011909;-62
2023/12/05 10:49:53;;;;;;;15.00;8.00;;;;;;;1.02;58.33;100450.08;79854;1298;3011882;-62
2023/12/05 10:52:22;;;;;;;16.00;6.80;;;;;;;0.92;59.03;100448.23;78743;1297;3053295;-62
2023/12/05 10:54:54;;;;;;;12.50;6.40;;;;;;;1.00;58.90;100443.19;79682;1300;3013267;-61
2023/12/05 10:57:35;;;;;;;14.30;6.20;;;;;;;0.97;58.89;100445.10;78751;1295;3050737;-64
2023/12/05 11:00:05;;;;;;;13.30;6.30;;;;;;;1.01;58.52;100446.64;78832;1293;3057100;-62
2023/12/05 11:02:33;;;;;;;20.50;8.60;;;;;;;1.08;58.63;100449.54;80030;1293;3014095;-63